Time;durP1;ratioP1;P1;durP2;ratioP2;P2;SDS_P1;SDS_P2;PMS_P1;PMS_P2;Temp;Humidity;BMP_temperature;BMP_pressure;BME280_temperature;BME280_humidity;BME280_pressure;Samples;Min_cycle;Max_cycle;Signal;HPM_P1;HPM_P2
2023/07/30 00:01:53;;;;;;;2.60;2.50;;;19.90;99.90;;;20.29;87.01;100748.44;5045444;28;20042;-68
2023/07/30 00:04:23;;;;;;;3.03;2.92;;;19.90;99.90;;;20.25;87.19;100749.53;5047409;28;20033;-69
2023/07/30 00:06:51;;;;;;;3.08;2.97;;;19.90;99.90;;;20.26;87.16;100746.81;5044495;28;20057;-68
2023/07/30 00:09:19;;;;;;;2.83;2.72;;;19.90;99.90;;;20.28;87.14;100752.97;5036176;28;20053;-68
2023/07/30 00:11:48;;;;;;;2.88;2.78;;;19.90;99.90;;;20.33;87.22;100750.94;5036159;28;20487;-68
2023/07/30 00:14:16;;;;;;;3.40;3.30;;;19.90;99.90;;;20.39;86.90;100752.47;5036037;28;20045;-69
2023/07/30 00:16:45;;;;;;;2.40;2.30;;;20.00;99.90;;;20.32;87.11;100746.53;5037282;28;20417;-67
2023/07/30 00:19:13;;;;;;;3.70;3.40;;;20.00;99.90;;;20.24;87.38;100743.31;5046572;28;20072;-69
2023/07/30 00:21:46;;;;;;;3.35;3.15;;;19.90;99.90;;;20.28;87.42;100744.03;5045987;28;20041;-68
2023/07/30 00:24:14;;;;;;;3.58;3.38;;;19.90;99.90;;;20.30;87.89;100759.16;5044959;28;20041;-68
2023/07/30 00:26:42;;;;;;;2.80;2.70;;;20.00;99.90;;;20.30;88.05;100758.28;5047082;28;20571;-68
2023/07/30 00:29:11;;;;;;;2.60;2.50;;;19.90;99.90;;;20.31;88.11;100760.00;5051395;28;20056;-67
2023/07/30 00:31:39;;;;;;;2.72;2.63;;;19.90;99.90;;;20.27;88.68;100761.09;5068045;28;20115;-68
2023/07/30 00:34:08;;;;;;;2.83;2.72;;;19.90;99.90;;;20.27;89.37;100756.59;5036040;28;20196;-68
2023/07/30 00:36:36;;;;;;;2.65;2.55;;;19.90;99.90;;;20.30;89.44;100756.47;5035813;28;20059;-67
2023/07/30 00:39:11;;;;;;;3.60;3.40;;;19.90;99.90;;;20.29;89.72;100767.25;5037482;28;20100;-68
2023/07/30 00:41:39;;;;;;;3.35;3.22;;;19.90;99.90;;;20.29;90.08;100764.56;5060821;28;20049;-68
2023/07/30 00:44:08;;;;;;;3.28;3.17;;;19.90;99.90;;;20.31;90.11;100765.38;5046712;28;20123;-68
2023/07/30 00:46:36;;;;;;;2.60;2.50;;;19.90;99.90;;;20.33;90.43;100776.94;5043967;28;20426;-68
2023/07/30 00:49:05;;;;;;;3.03;2.92;;;20.00;99.90;;;20.25;90.39;100753.09;5047322;28;20123;-68
2023/07/30 00:51:35;;;;;;;2.80;2.70;;;20.00;99.90;;;20.31;90.46;100776.13;5035340;28;20483;-68
2023/07/30 00:54:03;;;;;;;8.57;3.58;;;19.90;99.90;;;20.26;90.70;100770.97;5043981;28;20053;-68
2023/07/30 00:56:34;;;;;;;2.70;2.60;;;19.90;99.90;;;20.34;90.72;100776.00;5046141;28;20041;-68
2023/07/30 00:59:02;;;;;;;2.83;2.72;;;20.00;99.90;;;20.34;90.60;100776.00;5045108;28;20050;-68
2023/07/30 01:01:34;;;;;;;2.78;2.67;;;20.00;99.90;;;20.44;90.70;100786.25;5045495;28;20069;-69
2023/07/30 01:04:03;;;;;;;2.65;2.55;;;20.00;99.90;;;20.48;90.07;100781.59;5046466;28;20045;-69
2023/07/30 01:06:32;;;;;;;2.70;2.60;;;20.10;99.90;;;20.49;90.21;100786.03;5050539;28;20434;-69
2023/07/30 01:09:01;;;;;;;2.75;2.65;;;20.10;99.90;;;20.53;90.04;100783.16;5047084;28;20057;-68
2023/07/30 01:11:30;;;;;;;2.55;2.45;;;20.20;99.90;;;20.43;90.01;100767.50;5079171;28;20098;-68
2023/07/30 01:14:01;;;;;;;2.78;2.67;;;20.20;99.90;;;20.51;90.27;100779.66;5044032;28;20131;-68
2023/07/30 01:16:30;;;;;;;2.58;2.47;;;20.20;99.90;;;20.50;90.52;100783.28;5061119;28;20099;-69
2023/07/30 01:19:03;;;;;;;2.40;2.30;;;20.20;99.90;;;20.54;90.14;100784.88;5045014;28;20116;-69
2023/07/30 01:21:34;;;;;;;2.60;2.50;;;20.20;99.90;;;20.55;89.94;100783.06;5044245;28;20045;-68
2023/07/30 01:24:03;;;;;;;3.13;2.92;;;20.20;99.90;;;20.55;90.13;100785.75;5046551;28;20119;-68
2023/07/30 01:26:38;;;;;;;2.60;2.50;;;20.20;99.90;;;20.53;90.08;100779.56;5067001;28;20033;-68
2023/07/30 01:29:13;;;;;;;2.58;2.47;;;20.20;99.90;;;20.58;89.91;100773.03;5034757;28;20073;-69
2023/07/30 01:31:42;;;;;;;2.50;2.40;;;20.20;99.90;;;20.42;89.98;100766.63;5050242;28;20053;-69
2023/07/30 01:34:12;;;;;;;3.03;2.92;;;20.20;99.90;;;20.59;89.92;100785.56;5037874;28;20095;-69
2023/07/30 01:36:43;;;;;;;2.60;2.50;;;20.20;99.90;;;20.56;89.94;100787.47;5058601;28;20060;-70
2023/07/30 01:39:12;;;;;;;2.65;2.55;;;20.20;99.90;;;20.57;89.76;100779.38;5058230;28;20057;-69
2023/07/30 01:41:40;;;;;;;3.08;2.97;;;20.20;99.90;;;20.60;89.91;100783.72;5061291;28;20102;-69
2023/07/30 01:44:09;;;;;;;2.90;2.80;;;20.30;99.90;;;20.64;89.57;100786.19;5043951;28;20053;-68
2023/07/30 01:46:37;;;;;;;2.55;2.45;;;20.30;99.90;;;20.68;89.37;100784.22;5044905;28;20041;-68
2023/07/30 01:49:05;;;;;;;2.75;2.65;;;20.30;99.90;;;20.69;89.10;100784.16;5044520;28;20053;-68
2023/07/30 01:51:33;;;;;;;2.90;2.80;;;20.40;99.90;;;20.69;89.34;100788.69;5043930;28;20080;-69
2023/07/30 01:54:04;;;;;;;8.45;2.63;;;20.40;99.90;;;20.68;89.18;100786.91;5045282;28;20455;-69
2023/07/30 01:56:33;;;;;;;3.00;2.90;;;20.30;99.90;;;20.70;89.52;100793.09;5042965;28;20045;-69
2023/07/30 01:59:01;;;;;;;2.58;2.47;;;20.40;99.90;;;20.69;89.60;100792.22;5046150;28;20049;-69
2023/07/30 02:01:29;;;;;;;2.75;2.65;;;20.40;99.90;;;20.66;89.65;100805.81;5066079;28;20118;-67
2023/07/30 02:03:58;;;;;;;2.67;2.58;;;20.30;99.90;;;20.66;89.72;100796.88;5034323;28;20060;-69
2023/07/30 02:06:26;;;;;;;2.80;2.60;;;20.30;99.90;;;20.66;89.56;100796.88;5048290;28;20037;-69
2023/07/30 02:08:55;;;;;;;2.90;2.80;;;20.30;99.90;;;20.51;89.85;100765.34;5050200;28;20053;-69
2023/07/30 02:11:24;;;;;;;2.72;2.63;;;20.30;99.90;;;20.69;89.80;100800.28;5059545;28;20447;-69
2023/07/30 02:13:53;;;;;;;3.30;3.20;;;20.30;99.90;;;20.75;89.67;100791.03;5044058;28;20398;-69
2023/07/30 02:16:21;;;;;;;4.68;4.28;;;20.40;99.90;;;20.66;89.92;100789.69;5049760;28;20422;-68
2023/07/30 02:18:48;;;;;;;2.85;2.75;;;20.40;99.90;;;20.66;90.03;100791.50;5044700;28;20045;-69
2023/07/30 02:21:17;;;;;;;2.88;2.78;;;20.40;99.90;;;20.75;89.91;100784.81;5041986;28;20147;-68
2023/07/30 02:23:46;;;;;;;3.00;2.90;;;20.30;99.90;;;20.76;89.80;100790.13;5060097;28;20048;-69
2023/07/30 02:26:14;;;;;;;3.13;3.03;;;20.40;99.90;;;20.74;89.91;100793.81;5041587;28;20057;-69
2023/07/30 02:28:44;;;;;;;2.60;2.50;;;20.40;99.90;;;20.79;89.82;100789.97;5041367;28;20379;-68
2023/07/30 02:31:12;;;;;;;2.60;2.50;;;20.40;99.90;;;20.80;89.59;100785.47;5044511;28;20045;-68
2023/07/30 02:33:41;;;;;;;2.58;2.47;;;20.50;99.90;;;20.85;89.50;100784.28;5057772;28;20283;-68
2023/07/30 02:36:09;;;;;;;2.75;2.65;;;20.50;99.90;;;20.80;89.41;100785.47;5058896;28;20057;-68
2023/07/30 02:38:38;;;;;;;2.67;2.58;;;20.50;99.90;;;20.83;89.32;100782.66;5042700;28;20531;-68
2023/07/30 02:41:06;;;;;;;3.25;3.03;;;20.50;99.90;;;20.90;88.97;100784.97;5042438;28;20656;-69
2023/07/30 02:43:34;;;;;;;3.03;2.92;;;20.60;99.90;;;20.88;88.75;100785.97;5043598;28;20045;-69
2023/07/30 02:46:04;;;;;;;2.75;2.65;;;20.50;99.90;;;20.85;88.39;100780.75;5041699;28;20394;-68
2023/07/30 02:48:32;;;;;;;2.60;2.50;;;20.50;99.90;;;20.24;87.88;100675.28;5056385;28;20080;-68
2023/07/30 02:51:01;;;;;;;2.83;2.72;;;20.50;99.90;;;20.87;87.24;100774.34;5048311;28;20299;-69
2023/07/30 02:53:29;;;;;;;2.63;2.53;;;20.50;99.90;;;20.87;86.53;100785.09;5032866;28;20407;-69
2023/07/30 02:55:58;;;;;;;2.78;2.67;;;20.60;99.90;;;20.94;85.89;100775.81;5032877;28;20049;-69
2023/07/30 02:58:26;;;;;;;2.53;2.42;;;20.60;99.90;;;20.98;85.11;100768.44;5036894;28;20072;-69
2023/07/30 03:00:54;;;;;;;2.40;2.30;;;20.70;99.90;;;20.96;84.06;100781.09;5042160;28;20046;-69
2023/07/30 03:03:24;;;;;;;2.50;2.40;;;20.70;99.90;;;20.90;83.90;100776.00;5042863;28;20096;-69
2023/07/30 03:05:53;;;;;;;2.90;2.80;;;20.60;99.90;;;20.80;83.57;100762.16;5042896;28;20045;-69
2023/07/30 03:08:21;;;;;;;2.40;2.30;;;20.60;99.90;;;20.89;83.50;100777.81;5041897;28;20804;-68
2023/07/30 03:10:49;;;;;;;2.65;2.55;;;20.60;99.90;;;20.95;84.13;100780.22;5039182;28;20136;-68
2023/07/30 03:13:18;;;;;;;2.95;2.85;;;20.60;99.90;;;20.88;84.37;100776.09;5044068;28;20394;-68
2023/07/30 03:15:47;;;;;;;2.78;2.67;;;20.60;99.90;;;20.78;84.46;100771.22;5040468;28;20123;-69
2023/07/30 03:18:15;;;;;;;3.22;3.13;;;20.50;99.90;;;20.63;83.12;100775.53;5038573;28;20119;-68
2023/07/30 03:20:45;;;;;;;2.72;2.63;;;20.40;99.90;;;20.73;82.54;100782.19;5043838;28;20045;-70
2023/07/30 03:23:13;;;;;;;2.73;2.63;;;20.40;99.90;;;20.77;81.85;100791.00;5041549;28;20410;-69
2023/07/30 03:25:42;;;;;;;2.70;2.60;;;20.40;99.90;;;20.75;81.74;100776.75;5058088;28;20295;-70
2023/07/30 03:28:10;;;;;;;2.88;2.78;;;20.40;99.90;;;20.80;81.00;100780.97;5038574;28;20054;-70
2023/07/30 03:30:38;;;;;;;2.92;2.83;;;20.40;99.90;;;20.87;80.65;100785.09;5043814;28;20056;-70
2023/07/30 03:33:07;;;;;;;2.60;2.50;;;20.50;99.90;;;20.91;80.47;100785.81;5042993;28;20053;-69
2023/07/30 03:35:35;;;;;;;2.60;2.50;;;20.60;99.90;;;20.81;79.04;100788.06;5044236;28;20060;-69
2023/07/30 03:38:07;;;;;;;5.30;4.82;;;20.50;99.90;;;20.78;77.90;100790.03;5056225;28;20140;-70
2023/07/30 03:40:35;;;;;;;2.55;2.45;;;20.50;99.90;;;20.75;76.63;100787.50;5047530;28;20045;-69
2023/07/30 03:43:04;;;;;;;2.88;2.78;;;20.50;99.90;;;20.77;75.36;100786.47;5032406;28;20064;-69
2023/07/30 03:45:33;;;;;;;2.92;2.83;;;20.50;99.90;;;20.78;73.95;100787.34;5032766;28;20069;-69
2023/07/30 03:48:01;;;;;;;2.35;2.25;;;20.60;99.90;;;20.82;73.28;100792.53;5038032;28;20073;-70
2023/07/30 03:50:30;;;;;;;2.45;2.35;;;20.50;99.90;;;20.69;71.76;100794.06;5057258;28;20048;-69
2023/07/30 03:52:58;;;;;;;2.72;2.63;;;20.40;99.90;;;20.67;70.55;100788.72;5042577;28;20085;-69
2023/07/30 03:55:28;;;;;;;2.85;2.75;;;20.40;99.90;;;20.66;69.32;100795.06;5056822;28;20139;-69
2023/07/30 03:57:58;;;;;;;2.60;2.50;;;20.40;99.90;;;20.66;68.51;100784.31;5055568;28;20050;-69
2023/07/30 04:00:26;;;;;;;2.65;2.55;;;20.40;99.90;;;20.69;68.11;100799.44;5076248;28;20056;-69
2023/07/30 04:02:55;;;;;;;2.47;2.38;;;20.40;99.90;;;20.69;67.52;100794.06;5030896;28;20463;-70
2023/07/30 04:05:23;;;;;;;2.55;2.45;;;20.40;99.90;;;20.69;67.20;100794.06;5031903;28;20145;-68
2023/07/30 04:07:52;;;;;;;2.63;2.53;;;20.40;99.90;;;20.55;66.72;100783.06;5063781;28;20402;-69
2023/07/30 04:10:20;;;;;;;2.58;2.47;;;20.30;99.90;;;20.69;66.38;100786.84;5033295;28;20045;-69
2023/07/30 04:12:50;;;;;;;2.45;2.35;;;20.40;99.90;;;20.66;65.74;100797.75;5057672;28;20111;-70
2023/07/30 04:15:18;;;;;;;2.70;2.60;;;20.40;99.90;;;20.69;65.57;100794.06;5042358;28;20135;-69
2023/07/30 04:17:47;;;;;;;2.60;2.50;;;20.40;99.90;;;20.64;65.22;100793.38;5041026;28;20314;-70
2023/07/30 04:20:17;;;;;;;3.17;3.07;;;20.40;99.90;;;20.77;65.30;100799.06;5054913;28;20144;-68
2023/07/30 04:22:46;;;;;;;2.63;2.53;;;20.40;99.90;;;20.77;65.00;100802.59;5043469;28;20628;-69
2023/07/30 04:25:14;;;;;;;2.50;2.40;;;20.40;99.90;;;20.80;65.13;100802.47;5032041;28;20394;-68
2023/07/30 04:27:43;;;;;;;2.30;2.20;;;20.50;99.90;;;20.69;64.78;100799.44;5032086;28;20084;-69
2023/07/30 04:30:14;;;;;;;2.28;2.17;;;20.40;99.90;;;20.64;64.65;100786.19;5050843;28;20053;-69
2023/07/30 04:32:42;;;;;;;;;;;20.40;99.90;;;20.69;65.12;100794.91;5045210;28;20144;-69
2023/07/30 04:35:11;;;;;;;2.50;2.40;;;20.40;99.90;;;20.75;65.42;100798.25;5059266;28;19960;-68
2023/07/30 04:37:40;;;;;;;2.58;2.47;;;20.40;99.90;;;20.32;65.69;100725.03;5061261;28;20045;-70
2023/07/30 04:40:10;;;;;;;2.55;2.45;;;20.40;99.90;;;20.78;66.10;100803.47;5044358;28;20053;-70
2023/07/30 04:42:39;;;;;;;2.47;2.38;;;20.40;99.90;;;20.79;66.21;100800.72;5062138;28;20061;-70
2023/07/30 04:45:08;;;;;;;2.78;2.67;;;20.50;99.90;;;20.76;66.72;100798.19;5058743;28;20088;-69
2023/07/30 04:47:41;;;;;;;2.55;2.45;;;20.40;99.90;;;20.73;67.38;100805.53;5050334;28;20164;-70
2023/07/30 04:50:10;;;;;;;;;;;20.40;99.90;;;20.63;68.03;100805.94;5044959;28;20450;-70
2023/07/30 04:52:39;;;;;;;2.60;2.50;;;20.30;99.90;;;20.68;68.66;100795.88;5034010;28;19920;-69
2023/07/30 04:55:09;;;;;;;2.63;2.53;;;20.30;99.90;;;20.67;69.16;100804.84;5041968;28;20058;-70
2023/07/30 04:57:37;;;;;;;8.05;2.65;;;20.30;99.90;;;20.59;69.80;100804.38;5045831;28;20186;-70
2023/07/30 05:00:08;;;;;;;2.88;2.78;;;20.20;99.90;;;20.56;70.70;100809.88;5059226;28;20054;-69
2023/07/30 05:02:36;;;;;;;;;;;20.20;99.90;;;20.54;72.25;100806.38;5058909;28;20053;-70
2023/07/30 05:05:07;;;;;;;2.80;2.70;;;20.20;99.90;;;20.60;73.45;100810.59;5050307;28;19932;-69
2023/07/30 05:07:35;;;;;;;3.15;3.05;;;20.20;99.90;;;20.58;74.54;100807.97;5034950;28;20053;-70
2023/07/30 05:10:06;;;;;;;2.78;2.67;;;20.20;99.90;;;20.59;75.31;100808.88;5034583;28;20072;-68
2023/07/30 05:12:34;;;;;;;2.72;2.63;;;20.20;99.90;;;20.58;75.72;100810.66;5034676;28;20449;-69
2023/07/30 05:15:03;;;;;;;2.53;2.42;;;20.20;99.90;;;20.61;76.47;100810.50;5045177;28;20041;-70
2023/07/30 05:17:31;;;;;;;2.65;2.55;;;20.30;99.90;;;20.57;77.14;100825.06;5043725;28;20046;-69
2023/07/30 05:20:00;;;;;;;2.78;2.67;;;20.30;99.90;;;20.61;77.82;100817.72;5045618;28;20053;-69
2023/07/30 05:22:29;;;;;;;2.83;2.72;;;20.30;99.90;;;20.52;78.89;100819.00;5043084;28;20049;-70
2023/07/30 05:24:58;;;;;;;2.30;2.20;;;20.20;99.90;;;20.61;79.96;100829.31;5034475;28;20116;-68
2023/07/30 05:27:28;;;;;;;2.90;2.80;;;20.20;99.90;;;20.58;81.18;100823.22;5034602;28;20045;-69
2023/07/30 05:29:57;;;;;;;;;;;20.30;99.90;;;20.56;82.20;100812.56;5034715;28;20116;-70
2023/07/30 05:32:26;;;;;;;6.60;5.95;;;20.20;99.90;;;20.59;82.84;100817.81;5035673;28;20406;-70
2023/07/30 05:34:54;;;;;;;2.60;2.50;;;20.20;99.90;;;20.52;83.34;100819.00;5044506;28;20068;-70
2023/07/30 05:37:23;;;;;;;2.90;2.80;;;20.20;99.90;;;20.36;84.45;100817.97;5044164;28;20114;-70
2023/07/30 05:39:53;;;;;;;2.47;2.38;;;20.10;99.90;;;20.34;85.18;100808.25;5042845;28;20065;-70
2023/07/30 05:42:21;;;;;;;3.03;2.93;;;20.00;99.90;;;20.32;85.88;100810.13;5045098;28;20052;-69
2023/07/30 05:44:50;;;;;;;3.00;2.90;;;20.00;99.90;;;20.25;86.50;100814.88;5042190;28;20107;-69
2023/07/30 05:47:18;;;;;;;3.08;2.97;;;19.90;99.90;;;20.28;87.05;100812.09;5049448;28;20119;-69
2023/07/30 05:49:47;;;;;;;3.42;3.22;;;19.90;99.90;;;20.24;87.49;100818.53;5033927;28;20052;-70
2023/07/30 05:52:15;;;;;;;3.00;2.90;;;19.90;99.90;;;20.19;87.43;100808.94;5033937;28;20049;-70
2023/07/30 05:54:43;;;;;;;2.90;2.80;;;19.90;99.90;;;20.28;87.18;100806.72;5034760;28;20042;-70
2023/07/30 05:57:13;;;;;;;2.78;2.67;;;19.90;99.90;;;20.29;87.05;100813.81;5059294;28;20049;-69
2023/07/30 05:59:42;;;;;;;2.77;2.67;;;19.90;99.90;;;20.25;86.98;100800.56;5043634;28;20115;-68
2023/07/30 06:02:10;;;;;;;2.83;2.72;;;19.90;99.90;;;20.26;86.59;100803.22;5042974;28;20768;-69
2023/07/30 06:04:38;;;;;;;6.75;3.15;;;19.90;99.90;;;20.21;86.67;100812.44;5059689;28;20419;-69
2023/07/30 06:07:07;;;;;;;2.75;2.65;;;19.90;99.90;;;20.20;86.40;100819.63;5048952;28;20045;-69
2023/07/30 06:09:35;;;;;;;3.83;3.47;;;19.90;99.90;;;20.19;86.45;100806.25;5045398;28;20434;-70
2023/07/30 06:12:04;;;;;;;2.72;2.63;;;19.90;99.90;;;20.16;86.45;100815.28;5065743;28;20095;-69
2023/07/30 06:14:34;;;;;;;3.03;2.92;;;19.80;99.90;;;20.14;86.06;100806.41;5041966;28;20049;-70
2023/07/30 06:17:02;;;;;;;2.77;2.67;;;19.80;99.90;;;20.08;85.62;100812.06;5044120;28;20053;-70
2023/07/30 06:19:31;;;;;;;3.63;3.42;;;19.80;99.90;;;20.08;85.97;100814.75;5042445;28;20112;-71
2023/07/30 06:21:59;;;;;;;2.85;2.75;;;19.70;99.90;;;20.11;86.54;100817.28;5043300;28;20525;-69
2023/07/30 06:24:28;;;;;;;2.90;2.80;;;19.80;99.90;;;19.98;86.56;100799.97;5055402;28;20068;-71
2023/07/30 06:26:56;;;;;;;2.78;2.67;;;19.70;99.90;;;20.05;86.75;100812.22;5044065;28;20432;-71
2023/07/30 06:29:25;;;;;;;45.13;10.85;;;19.70;99.90;;;20.14;86.83;100810.91;5042015;28;20041;-70
2023/07/30 06:31:54;;;;;;;2.75;2.65;;;19.70;99.90;;;20.12;86.64;100812.78;5044211;28;20041;-70
2023/07/30 06:34:23;;;;;;;2.97;2.88;;;19.80;99.90;;;20.23;86.64;100826.63;5056808;28;20048;-71
2023/07/30 06:36:51;;;;;;;2.70;2.60;;;19.90;99.90;;;20.26;86.27;100824.72;5041337;28;20107;-69
2023/07/30 06:39:19;;;;;;;2.67;2.58;;;19.90;99.90;;;20.26;85.29;100813.97;5044237;28;20053;-69
2023/07/30 06:41:48;;;;;;;3.10;3.00;;;20.00;99.90;;;20.24;84.32;100828.41;5042329;28;20049;-69
2023/07/30 06:44:16;;;;;;;2.75;2.65;;;20.00;99.90;;;20.29;82.93;100823.69;5043848;28;20041;-70
2023/07/30 06:46:45;;;;;;;2.85;2.65;;;20.00;99.90;;;20.24;80.26;100834.66;5042814;28;20073;-72
2023/07/30 06:49:14;;;;;;;2.65;2.55;;;20.00;99.90;;;20.29;79.26;100823.69;5042807;28;20045;-71
2023/07/30 06:51:43;;;;;;;3.27;3.17;;;20.00;99.90;;;20.27;79.13;100829.13;5043702;28;20045;-69
2023/07/30 06:54:11;;;;;;;3.08;2.92;;;20.00;99.90;;;20.40;81.20;100826.78;5041737;28;20382;-69
2023/07/30 06:56:40;;;;;;;3.30;3.20;;;20.00;99.90;;;20.37;83.65;100832.28;5044076;28;20053;-70
2023/07/30 06:59:08;;;;;;;3.20;3.10;;;20.00;99.90;;;20.37;84.74;100830.47;5041106;28;20119;-70
2023/07/30 07:01:36;;;;;;;3.17;2.97;;;20.00;99.90;;;20.43;84.96;100835.56;5032847;28;20053;-69
2023/07/30 07:04:05;;;;;;;2.85;2.75;;;20.00;99.90;;;20.32;84.62;100829.81;5033001;28;20045;-69
2023/07/30 07:06:35;;;;;;;2.92;2.83;;;20.00;99.90;;;20.30;83.91;100829.00;5032279;28;20061;-70
2023/07/30 07:09:04;;;;;;;2.70;2.60;;;20.00;99.90;;;20.25;81.46;100831.00;5033656;28;20045;-69
2023/07/30 07:11:32;;;;;;;2.95;2.72;;;20.00;99.90;;;20.26;79.82;100837.25;5042505;28;20295;-70
2023/07/30 07:14:00;;;;;;;5.30;4.90;;;20.00;99.90;;;20.21;79.93;100836.59;5042526;28;20095;-70
2023/07/30 07:16:29;;;;;;;2.97;2.88;;;19.90;99.90;;;20.23;79.04;100840.06;5041519;28;20498;-70
2023/07/30 07:18:57;;;;;;;3.50;3.40;;;19.90;99.90;;;20.16;78.33;100833.19;5043176;28;20052;-70
2023/07/30 07:21:26;;;;;;;3.13;3.03;;;19.90;99.90;;;20.21;78.49;100850.88;5040796;28;20045;-70
2023/07/30 07:23:56;;;;;;;2.92;2.83;;;19.90;99.90;;;20.28;78.30;100848.81;5044098;28;20360;-69
2023/07/30 07:26:24;;;;;;;2.80;2.70;;;19.90;99.90;;;20.36;77.92;100852.88;5040788;28;20056;-68
2023/07/30 07:28:53;;;;;;;3.05;2.95;;;20.00;99.90;;;20.40;76.69;100867.94;5043459;28;20041;-68
2023/07/30 07:31:21;;;;;;;4.88;3.42;;;20.10;99.90;;;20.32;76.49;100850.44;5040923;28;20147;-68
2023/07/30 07:33:50;;;;;;;2.88;2.78;;;20.00;99.90;;;20.53;76.21;100853.03;5042522;28;20058;-67
2023/07/30 07:36:18;;;;;;;3.15;3.05;;;20.20;99.90;;;20.65;76.29;100851.59;5042330;28;20057;-68
2023/07/30 07:38:47;;;;;;;2.95;2.85;;;20.30;99.90;;;20.68;75.50;100867.56;5042176;28;20052;-69
2023/07/30 07:41:17;;;;;;;3.28;2.97;;;20.40;99.90;;;20.11;74.48;100763.56;5042852;28;20155;-68
2023/07/30 07:43:47;;;;;;;;;;;20.40;99.90;;;20.66;72.96;100851.53;5040966;28;20103;-68
2023/07/30 07:46:15;;;;;;;3.85;3.58;;;20.40;99.90;;;20.91;72.74;100874.56;5043716;28;19978;-68
2023/07/30 07:48:44;;;;;;;2.78;2.67;;;20.50;99.90;;;21.08;73.48;100878.25;5032025;28;20103;-69
2023/07/30 07:51:13;;;;;;;2.85;2.75;;;20.70;99.90;;;20.97;70.87;100875.16;5031696;28;20045;-69
2023/07/30 07:53:41;;;;;;;2.63;2.53;;;20.70;99.90;;;21.15;70.45;100884.22;5031671;28;20058;-69
2023/07/30 07:56:10;;;;;;;2.70;2.60;;;20.80;99.90;;;21.27;70.16;100886.31;5033784;28;20080;-69
2023/07/30 07:58:40;;;;;;;2.75;2.65;;;20.90;99.90;;;21.29;70.13;100892.50;5057342;28;20099;-69
2023/07/30 08:01:08;;;;;;;3.30;3.10;;;21.00;99.90;;;21.15;69.91;100887.78;5042388;28;20479;-69
2023/07/30 08:03:36;;;;;;;2.65;2.55;;;20.90;99.90;;;21.17;70.42;100885.91;5042543;28;20057;-68
2023/07/30 08:06:06;;;;;;;2.92;2.83;;;20.90;99.90;;;21.24;70.37;100890.03;5047371;28;20068;-69
2023/07/30 08:08:34;;;;;;;2.85;2.75;;;20.90;99.90;;;21.23;70.58;100888.31;5044224;28;20390;-69
2023/07/30 08:11:06;;;;;;;2.42;2.33;;;20.90;99.90;;;21.18;70.79;100895.69;5043800;28;20049;-69
2023/07/30 08:13:35;;;;;;;2.58;2.47;;;20.90;99.90;;;21.16;70.51;100894.91;5035728;28;20089;-68
2023/07/30 08:16:05;;;;;;;2.90;2.70;;;20.80;99.90;;;21.11;70.93;100901.44;5035252;28;20486;-68
2023/07/30 08:18:33;;;;;;;15.90;2.97;;;20.80;99.90;;;21.00;71.05;100896.50;5035490;28;20375;-69
2023/07/30 08:21:02;;;;;;;2.95;2.85;;;20.70;99.90;;;20.92;71.18;100895.16;5042267;28;20088;-68
2023/07/30 08:23:30;;;;;;;2.80;2.70;;;20.60;99.90;;;20.85;71.29;100893.69;5043284;28;20159;-68
2023/07/30 08:25:58;;;;;;;2.83;2.72;;;20.60;99.90;;;20.86;71.20;100896.31;5058627;28;20145;-69
2023/07/30 08:28:27;;;;;;;2.90;2.80;;;20.60;99.90;;;20.91;71.17;100905.03;5046549;28;20045;-69
2023/07/30 08:31:02;;;;;;;3.15;2.67;;;20.60;99.90;;;20.85;71.40;100896.38;5043363;28;20045;-69
2023/07/30 08:33:31;;;;;;;2.65;2.55;;;20.50;99.90;;;20.89;71.61;100892.59;5035204;28;20117;-69
2023/07/30 08:36:00;;;;;;;2.73;2.63;;;20.50;99.90;;;20.82;71.16;100883.06;5035101;28;20049;-69
2023/07/30 08:38:30;;;;;;;2.50;2.40;;;20.60;99.90;;;20.92;71.07;100898.72;5034716;28;20291;-67
2023/07/30 08:40:58;;;;;;;2.83;2.72;;;20.60;99.90;;;20.77;71.33;100885.09;5037383;28;20048;-69
2023/07/30 08:43:27;;;;;;;3.53;3.33;;;20.50;99.90;;;20.71;72.54;100891.63;5044171;28;20494;-69
2023/07/30 08:45:55;;;;;;;2.88;2.78;;;20.40;99.90;;;20.79;73.31;100893.97;5046052;28;20052;-69
2023/07/30 08:48:26;;;;;;;3.15;2.95;;;20.40;99.90;;;20.90;72.93;100899.72;5043313;28;20068;-70
2023/07/30 08:50:58;;;;;;;4.65;4.35;;;20.50;99.90;;;21.00;72.64;100895.66;5043435;28;20042;-69
2023/07/30 08:53:27;;;;;;;2.90;2.80;;;20.60;99.90;;;21.15;71.88;100905.72;5045461;28;20079;-70
2023/07/30 08:55:58;;;;;;;4.55;4.25;;;20.80;99.90;;;21.43;71.71;100915.09;5044406;28;20049;-68
2023/07/30 08:58:26;;;;;;;;;;;21.00;99.90;;;21.52;70.85;100903.03;5044742;28;20035;-70
2023/07/30 09:00:56;;;;;;;3.08;2.97;;;21.20;99.90;;;21.60;69.92;100910.72;5060924;28;20350;-70
2023/07/30 09:03:28;;;;;;;7.43;3.85;;;21.30;99.90;;;21.68;68.47;100920.16;5058843;28;20045;-69
2023/07/30 09:05:58;;;;;;;3.03;2.92;;;21.40;99.90;;;21.82;69.14;100909.63;5043162;28;20061;-69
2023/07/30 09:08:26;;;;;;;2.87;2.77;;;21.50;99.90;;;21.90;69.17;100899.34;5045520;28;20503;-68
2023/07/30 09:10:54;;;;;;;2.80;2.70;;;21.60;99.90;;;22.04;69.02;100915.69;5059273;28;20045;-70
2023/07/30 09:13:23;;;;;;;4.35;3.40;;;21.70;99.90;;;22.17;67.33;100914.09;5045104;28;20041;-69
2023/07/30 09:15:51;;;;;;;2.55;2.45;;;21.90;99.90;;;22.29;66.88;100912.59;5043475;28;20081;-68
2023/07/30 09:18:21;;;;;;;2.80;2.70;;;22.00;99.90;;;22.49;66.15;100927.72;5044117;28;20485;-70
2023/07/30 09:20:49;;;;;;;3.20;3.05;;;22.10;99.90;;;22.69;66.10;100919.47;5045372;28;20041;-70
2023/07/30 09:23:19;;;;;;;2.70;2.60;;;22.40;99.90;;;22.81;64.25;100924.22;5043125;28;20076;-69
2023/07/30 09:25:50;;;;;;;2.78;2.67;;;22.50;99.90;;;22.71;63.67;100931.06;5046198;28;20056;-67
2023/07/30 09:28:20;;;;;;;2.70;2.60;;;22.40;99.90;;;22.63;63.52;100926.06;5042851;28;20049;-69
2023/07/30 09:30:51;;;;;;;4.53;3.58;;;22.40;99.90;;;22.58;64.11;100932.66;5044838;28;20056;-69
2023/07/30 09:33:21;;;;;;;2.75;2.65;;;22.30;99.90;;;22.57;64.44;100936.34;5043790;28;20052;-69
2023/07/30 09:35:50;;;;;;;;;;;22.30;99.90;;;22.78;65.35;100938.75;5059730;28;20494;-69
2023/07/30 09:38:20;;;;;;;2.55;2.45;;;22.40;99.90;;;22.73;63.54;100948.03;5044708;28;19931;-68
2023/07/30 09:40:49;;;;;;;3.42;3.17;;;22.40;99.90;;;22.81;63.91;100943.09;5043101;28;20176;-68
2023/07/30 09:43:18;;;;;;;3.55;3.35;;;22.50;99.90;;;22.84;63.59;100951.06;5045947;28;20059;-68
2023/07/30 09:45:48;;;;;;;2.70;2.60;;;22.50;99.90;;;23.06;63.73;100957.00;5032760;28;20050;-69
2023/07/30 09:48:16;;;;;;;23.90;6.15;;;22.70;99.90;;;23.35;63.78;100952.75;5033822;28;20042;-69
2023/07/30 09:50:46;;;;;;;2.70;2.60;;;23.00;99.90;;;23.60;62.25;100953.97;5033571;28;20060;-68
2023/07/30 09:53:16;;;;;;;2.40;2.30;;;23.30;99.90;;;23.58;61.23;100965.81;5067610;28;20604;-68
2023/07/30 09:55:46;;;;;;;;;;;23.30;99.90;;;23.45;60.45;100964.78;5059164;28;20418;-68
2023/07/30 09:58:14;;;;;;;2.97;2.88;;;23.20;99.90;;;23.38;60.15;100968.78;5044415;28;20312;-69
2023/07/30 10:00:44;;;;;;;2.42;2.33;;;23.10;99.90;;;23.43;61.48;100969.38;5042487;28;20049;-68
2023/07/30 10:03:16;;;;;;;2.53;2.42;;;23.10;99.90;;;23.61;62.45;100980.06;5045155;28;20095;-68
2023/07/30 10:05:46;;;;;;;2.65;2.45;;;23.30;99.90;;;23.57;60.21;100978.47;5042233;28;20052;-69
2023/07/30 10:08:21;;;;;;;2.30;2.20;;;23.30;99.90;;;23.65;59.73;100972.66;5044439;28;20049;-68
2023/07/30 10:10:52;;;;;;;2.42;2.33;;;23.40;99.90;;;23.68;59.56;100980.56;5043874;28;20045;-69
2023/07/30 10:13:21;;;;;;;2.30;2.20;;;23.40;99.90;;;22.97;58.25;100879.28;5042100;28;20049;-70
2023/07/30 10:15:50;;;;;;;2.53;2.42;;;23.30;99.90;;;23.55;59.91;100979.50;5045241;28;20044;-69
2023/07/30 10:18:20;;;;;;;2.30;2.20;;;23.20;99.90;;;23.34;61.34;100967.22;5045014;28;20508;-70
2023/07/30 10:20:56;;;;;;;2.60;2.42;;;23.10;99.90;;;23.27;61.09;100983.72;5042005;28;20048;-69
2023/07/30 10:23:29;;;;;;;2.80;2.70;;;23.00;99.90;;;23.15;61.19;100972.72;5042944;28;20045;-69